sensor_id;sensor_type;location;lat;lon;timestamp;temperature;humidity
5792;DHT22;2922;53.482;10.006;2023-07-31T00:02:15;14.90;99.90
5792;DHT22;2922;53.482;10.006;2023-07-31T00:04:40;15.00;99.90
5792;DHT22;2922;53.482;10.006;2023-07-31T00:07:06;14.90;99.90
5792;DHT22;2922;53.482;10.006;2023-07-31T00:09:32;14.90;99.90
5792;DHT22;2922;53.482;10.006;2023-07-31T00:11:58;14.90;99.90
5792;DHT22;2922;53.482;10.006;2023-07-31T00:14:24;14.90;99.90
5792;DHT22;2922;53.482;10.006;2023-07-31T00:16:49;14.90;99.90
5792;DHT22;2922;53.482;10.006;2023-07-31T00:19:15;14.90;99.90
5792;DHT22;2922;53.482;10.006;2023-07-31T00:21:40;14.80;99.90
5792;DHT22;2922;53.482;10.006;2023-07-31T00:24:06;14.80;99.90
5792;DHT22;2922;53.482;10.006;2023-07-31T00:26:31;14.80;99.90
5792;DHT22;2922;53.482;10.006;2023-07-31T00:28:57;14.80;99.90
5792;DHT22;2922;53.482;10.006;2023-07-31T00:31:22;14.90;99.90
5792;DHT22;2922;53.482;10.006;2023-07-31T00:33:48;14.90;99.90
5792;DHT22;2922;53.482;10.006;2023-07-31T00:36:14;14.80;99.90
5792;DHT22;2922;53.482;10.006;2023-07-31T00:38:39;14.90;99.90
5792;DHT22;2922;53.482;10.006;2023-07-31T00:41:05;14.90;99.90
5792;DHT22;2922;53.482;10.006;2023-07-31T00:43:30;14.80;99.90
5792;DHT22;2922;53.482;10.006;2023-07-31T00:45:56;14.90;99.90
5792;DHT22;2922;53.482;10.006;2023-07-31T00:48:21;14.90;99.90
5792;DHT22;2922;53.482;10.006;2023-07-31T00:50:47;14.90;99.90
5792;DHT22;2922;53.482;10.006;2023-07-31T00:53:13;15.00;99.90
5792;DHT22;2922;53.482;10.006;2023-07-31T00:55:39;14.90;99.90
5792;DHT22;2922;53.482;10.006;2023-07-31T00:58:05;14.80;99.90
5792;DHT22;2922;53.482;10.006;2023-07-31T01:00:30;14.80;99.90
5792;DHT22;2922;53.482;10.006;2023-07-31T01:02:56;14.80;99.90
5792;DHT22;2922;53.482;10.006;2023-07-31T01:08:32;14.80;99.90
5792;DHT22;2922;53.482;10.006;2023-07-31T01:11:15;14.80;99.90
5792;DHT22;2922;53.482;10.006;2023-07-31T01:13:44;14.80;99.90
5792;DHT22;2922;53.482;10.006;2023-07-31T01:16:09;14.80;99.90
5792;DHT22;2922;53.482;10.006;2023-07-31T01:18:35;14.80;99.90
5792;DHT22;2922;53.482;10.006;2023-07-31T01:24:07;14.80;99.90
5792;DHT22;2922;53.482;10.006;2023-07-31T01:26:34;14.80;99.90
5792;DHT22;2922;53.482;10.006;2023-07-31T01:29:10;14.80;99.90
5792;DHT22;2922;53.482;10.006;2023-07-31T01:31:39;14.80;99.90
5792;DHT22;2922;53.482;10.006;2023-07-31T01:34:09;14.80;99.90
5792;DHT22;2922;53.482;10.006;2023-07-31T01:36:36;14.80;99.90
5792;DHT22;2922;53.482;10.006;2023-07-31T01:39:02;14.80;99.90
5792;DHT22;2922;53.482;10.006;2023-07-31T01:41:29;14.80;99.90
5792;DHT22;2922;53.482;10.006;2023-07-31T01:43:54;14.90;99.90
5792;DHT22;2922;53.482;10.006;2023-07-31T01:46:20;14.90;99.90
5792;DHT22;2922;53.482;10.006;2023-07-31T01:48:46;14.80;99.90
5792;DHT22;2922;53.482;10.006;2023-07-31T01:51:11;14.90;99.90
5792;DHT22;2922;53.482;10.006;2023-07-31T01:53:37;14.90;99.90
5792;DHT22;2922;53.482;10.006;2023-07-31T01:56:02;14.80;99.90
5792;DHT22;2922;53.482;10.006;2023-07-31T01:58:28;14.80;99.90
5792;DHT22;2922;53.482;10.006;2023-07-31T02:00:54;14.80;99.90
5792;DHT22;2922;53.482;10.006;2023-07-31T02:03:19;14.80;99.90
5792;DHT22;2922;53.482;10.006;2023-07-31T02:05:46;14.80;99.90
5792;DHT22;2922;53.482;10.006;2023-07-31T02:08:12;14.80;99.90
5792;DHT22;2922;53.482;10.006;2023-07-31T02:10:37;14.80;99.90
5792;DHT22;2922;53.482;10.006;2023-07-31T02:13:03;14.90;99.90
5792;DHT22;2922;53.482;10.006;2023-07-31T02:15:30;14.90;99.90
5792;DHT22;2922;53.482;10.006;2023-07-31T02:17:55;14.90;99.90
5792;DHT22;2922;53.482;10.006;2023-07-31T02:20:21;15.00;99.90
5792;DHT22;2922;53.482;10.006;2023-07-31T02:22:47;14.90;99.90
5792;DHT22;2922;53.482;10.006;2023-07-31T02:25:12;14.90;99.90
5792;DHT22;2922;53.482;10.006;2023-07-31T02:27:38;14.90;99.90
5792;DHT22;2922;53.482;10.006;2023-07-31T02:30:04;15.00;99.90
5792;DHT22;2922;53.482;10.006;2023-07-31T02:32:29;14.90;99.90
5792;DHT22;2922;53.482;10.006;2023-07-31T02:34:55;14.90;99.90
5792;DHT22;2922;53.482;10.006;2023-07-31T02:37:21;15.00;99.90
5792;DHT22;2922;53.482;10.006;2023-07-31T02:39:46;15.00;99.90
5792;DHT22;2922;53.482;10.006;2023-07-31T02:42:13;15.00;99.90
5792;DHT22;2922;53.482;10.006;2023-07-31T02:44:38;14.90;99.90
5792;DHT22;2922;53.482;10.006;2023-07-31T02:47:04;15.00;99.90
5792;DHT22;2922;53.482;10.006;2023-07-31T02:49:29;15.00;99.90
5792;DHT22;2922;53.482;10.006;2023-07-31T02:51:55;15.00;99.90
5792;DHT22;2922;53.482;10.006;2023-07-31T02:54:21;15.00;99.90
5792;DHT22;2922;53.482;10.006;2023-07-31T02:56:47;15.00;99.90
5792;DHT22;2922;53.482;10.006;2023-07-31T02:59:13;15.00;99.90
5792;DHT22;2922;53.482;10.006;2023-07-31T03:01:38;15.00;99.90
5792;DHT22;2922;53.482;10.006;2023-07-31T03:04:04;15.00;99.90
5792;DHT22;2922;53.482;10.006;2023-07-31T03:06:30;15.10;99.90
5792;DHT22;2922;53.482;10.006;2023-07-31T03:08:55;15.10;99.90
5792;DHT22;2922;53.482;10.006;2023-07-31T03:11:21;15.10;99.90
5792;DHT22;2922;53.482;10.006;2023-07-31T03:13:46;15.10;99.90
5792;DHT22;2922;53.482;10.006;2023-07-31T03:16:12;15.10;99.90
5792;DHT22;2922;53.482;10.006;2023-07-31T03:18:38;15.10;99.90
5792;DHT22;2922;53.482;10.006;2023-07-31T03:21:04;15.20;99.90
5792;DHT22;2922;53.482;10.006;2023-07-31T03:23:30;15.10;99.90
5792;DHT22;2922;53.482;10.006;2023-07-31T03:26:00;15.20;99.90
5792;DHT22;2922;53.482;10.006;2023-07-31T03:28:26;15.10;99.90
5792;DHT22;2922;53.482;10.006;2023-07-31T03:30:52;15.20;99.90
5792;DHT22;2922;53.482;10.006;2023-07-31T03:33:18;15.20;99.90
5792;DHT22;2922;53.482;10.006;2023-07-31T03:35:44;15.20;99.90
5792;DHT22;2922;53.482;10.006;2023-07-31T03:38:10;15.30;99.90
5792;DHT22;2922;53.482;10.006;2023-07-31T03:40:35;15.30;99.90
5792;DHT22;2922;53.482;10.006;2023-07-31T03:43:01;15.30;99.90
5792;DHT22;2922;53.482;10.006;2023-07-31T03:45:27;15.30;99.90
5792;DHT22;2922;53.482;10.006;2023-07-31T03:47:52;15.30;99.90
5792;DHT22;2922;53.482;10.006;2023-07-31T03:50:19;15.30;99.90
5792;DHT22;2922;53.482;10.006;2023-07-31T03:52:45;15.30;99.90
5792;DHT22;2922;53.482;10.006;2023-07-31T03:55:11;15.30;99.90
5792;DHT22;2922;53.482;10.006;2023-07-31T03:57:36;15.30;99.90
5792;DHT22;2922;53.482;10.006;2023-07-31T04:00:02;15.30;99.90
5792;DHT22;2922;53.482;10.006;2023-07-31T04:02:27;15.40;99.90
5792;DHT22;2922;53.482;10.006;2023-07-31T04:04:53;15.40;99.90
5792;DHT22;2922;53.482;10.006;2023-07-31T04:07:19;15.40;99.90
5792;DHT22;2922;53.482;10.006;2023-07-31T04:09:44;15.50;99.90
5792;DHT22;2922;53.482;10.006;2023-07-31T04:12:10;15.40;99.90
5792;DHT22;2922;53.482;10.006;2023-07-31T04:14:35;15.40;99.90
5792;DHT22;2922;53.482;10.006;2023-07-31T04:17:01;15.40;99.90
5792;DHT22;2922;53.482;10.006;2023-07-31T04:19:27;15.40;99.90
5792;DHT22;2922;53.482;10.006;2023-07-31T04:21:52;15.40;99.90
5792;DHT22;2922;53.482;10.006;2023-07-31T04:24:18;15.50;99.90
5792;DHT22;2922;53.482;10.006;2023-07-31T04:26:52;15.50;99.90
5792;DHT22;2922;53.482;10.006;2023-07-31T04:29:18;15.50;99.90
5792;DHT22;2922;53.482;10.006;2023-07-31T04:31:44;15.50;99.90
5792;DHT22;2922;53.482;10.006;2023-07-31T04:34:09;15.60;99.90
5792;DHT22;2922;53.482;10.006;2023-07-31T04:36:35;15.50;99.90
5792;DHT22;2922;53.482;10.006;2023-07-31T04:39:01;15.60;99.90
5792;DHT22;2922;53.482;10.006;2023-07-31T04:41:26;15.50;99.90
5792;DHT22;2922;53.482;10.006;2023-07-31T04:43:52;15.70;99.90
5792;DHT22;2922;53.482;10.006;2023-07-31T04:46:18;15.60;99.90
5792;DHT22;2922;53.482;10.006;2023-07-31T04:48:43;15.60;99.90
5792;DHT22;2922;53.482;10.006;2023-07-31T04:51:09;15.60;99.90
5792;DHT22;2922;53.482;10.006;2023-07-31T04:53:35;15.50;99.90
5792;DHT22;2922;53.482;10.006;2023-07-31T04:56:01;15.50;99.90
5792;DHT22;2922;53.482;10.006;2023-07-31T04:58:26;15.60;99.90
5792;DHT22;2922;53.482;10.006;2023-07-31T05:00:52;15.50;99.90
5792;DHT22;2922;53.482;10.006;2023-07-31T05:03:18;15.60;99.90
5792;DHT22;2922;53.482;10.006;2023-07-31T05:05:43;15.50;99.90
5792;DHT22;2922;53.482;10.006;2023-07-31T05:08:09;15.50;99.90
5792;DHT22;2922;53.482;10.006;2023-07-31T05:10:34;15.50;99.90
5792;DHT22;2922;53.482;10.006;2023-07-31T05:13:00;15.50;99.90
5792;DHT22;2922;53.482;10.006;2023-07-31T05:15:26;15.60;99.90
5792;DHT22;2922;53.482;10.006;2023-07-31T05:17:51;15.50;99.90
5792;DHT22;2922;53.482;10.006;2023-07-31T05:20:17;15.50;99.90
5792;DHT22;2922;53.482;10.006;2023-07-31T05:22:42;15.50;99.90
5792;DHT22;2922;53.482;10.006;2023-07-31T05:25:08;15.50;99.90
5792;DHT22;2922;53.482;10.006;2023-07-31T05:27:34;15.50;99.90
5792;DHT22;2922;53.482;10.006;2023-07-31T05:29:59;15.60;99.90
5792;DHT22;2922;53.482;10.006;2023-07-31T05:32:25;15.60;99.90
5792;DHT22;2922;53.482;10.006;2023-07-31T05:34:51;15.50;99.90
5792;DHT22;2922;53.482;10.006;2023-07-31T05:37:17;15.50;99.90
5792;DHT22;2922;53.482;10.006;2023-07-31T05:39:43;15.50;99.90
5792;DHT22;2922;53.482;10.006;2023-07-31T05:42:09;15.60;99.90
5792;DHT22;2922;53.482;10.006;2023-07-31T05:44:34;15.50;99.90
5792;DHT22;2922;53.482;10.006;2023-07-31T05:47:00;15.60;99.90
5792;DHT22;2922;53.482;10.006;2023-07-31T05:49:25;15.60;99.90
5792;DHT22;2922;53.482;10.006;2023-07-31T05:51:51;15.60;99.90
5792;DHT22;2922;53.482;10.006;2023-07-31T05:54:16;15.60;99.90
5792;DHT22;2922;53.482;10.006;2023-07-31T05:56:42;15.60;99.90
5792;DHT22;2922;53.482;10.006;2023-07-31T05:59:09;15.60;99.90
5792;DHT22;2922;53.482;10.006;2023-07-31T06:01:35;15.60;99.90
5792;DHT22;2922;53.482;10.006;2023-07-31T06:04:01;15.80;99.90
5792;DHT22;2922;53.482;10.006;2023-07-31T06:06:28;15.80;99.90
5792;DHT22;2922;53.482;10.006;2023-07-31T06:08:53;15.80;99.90
5792;DHT22;2922;53.482;10.006;2023-07-31T06:11:20;15.80;99.90
5792;DHT22;2922;53.482;10.006;2023-07-31T06:13:45;15.80;99.90
5792;DHT22;2922;53.482;10.006;2023-07-31T06:16:13;15.80;99.90
5792;DHT22;2922;53.482;10.006;2023-07-31T06:18:39;15.80;99.90
5792;DHT22;2922;53.482;10.006;2023-07-31T06:21:04;15.90;99.90
5792;DHT22;2922;53.482;10.006;2023-07-31T06:23:30;15.90;99.90
5792;DHT22;2922;53.482;10.006;2023-07-31T06:25:56;16.00;99.90
5792;DHT22;2922;53.482;10.006;2023-07-31T06:28:21;16.00;99.90
5792;DHT22;2922;53.482;10.006;2023-07-31T06:30:47;16.00;99.90
5792;DHT22;2922;53.482;10.006;2023-07-31T06:33:12;16.00;99.90
5792;DHT22;2922;53.482;10.006;2023-07-31T06:35:38;16.00;99.90
5792;DHT22;2922;53.482;10.006;2023-07-31T06:38:03;16.00;99.90
5792;DHT22;2922;53.482;10.006;2023-07-31T06:40:29;16.10;99.90
5792;DHT22;2922;53.482;10.006;2023-07-31T06:42:55;16.10;99.90
5792;DHT22;2922;53.482;10.006;2023-07-31T06:45:20;16.00;99.90
5792;DHT22;2922;53.482;10.006;2023-07-31T06:47:47;16.10;99.90
5792;DHT22;2922;53.482;10.006;2023-07-31T06:50:13;16.20;99.90
5792;DHT22;2922;53.482;10.006;2023-07-31T06:52:38;16.20;99.90
5792;DHT22;2922;53.482;10.006;2023-07-31T06:55:16;16.20;99.90
5792;DHT22;2922;53.482;10.006;2023-07-31T06:57:50;16.20;99.90
5792;DHT22;2922;53.482;10.006;2023-07-31T07:00:16;16.30;99.90
5792;DHT22;2922;53.482;10.006;2023-07-31T07:02:42;16.30;99.90
5792;DHT22;2922;53.482;10.006;2023-07-31T07:05:08;16.40;99.90
5792;DHT22;2922;53.482;10.006;2023-07-31T07:07:34;16.30;99.90
5792;DHT22;2922;53.482;10.006;2023-07-31T07:10:00;16.30;99.90
5792;DHT22;2922;53.482;10.006;2023-07-31T07:12:28;16.30;99.90
5792;DHT22;2922;53.482;10.006;2023-07-31T07:14:54;16.30;99.90
5792;DHT22;2922;53.482;10.006;2023-07-31T07:17:20;16.30;99.90
5792;DHT22;2922;53.482;10.006;2023-07-31T07:19:45;16.20;99.90
5792;DHT22;2922;53.482;10.006;2023-07-31T07:22:13;16.30;99.90
5792;DHT22;2922;53.482;10.006;2023-07-31T07:24:38;16.30;99.90
5792;DHT22;2922;53.482;10.006;2023-07-31T07:27:04;16.30;99.90
5792;DHT22;2922;53.482;10.006;2023-07-31T07:29:30;16.30;99.90
5792;DHT22;2922;53.482;10.006;2023-07-31T07:31:55;16.30;99.90
5792;DHT22;2922;53.482;10.006;2023-07-31T07:34:25;16.30;99.90
5792;DHT22;2922;53.482;10.006;2023-07-31T07:36:51;16.40;99.90
5792;DHT22;2922;53.482;10.006;2023-07-31T07:39:16;16.50;99.90
5792;DHT22;2922;53.482;10.006;2023-07-31T07:41:42;16.50;99.90
5792;DHT22;2922;53.482;10.006;2023-07-31T07:44:08;16.60;99.90
5792;DHT22;2922;53.482;10.006;2023-07-31T07:46:33;16.60;99.90
5792;DHT22;2922;53.482;10.006;2023-07-31T07:48:59;16.60;99.90
5792;DHT22;2922;53.482;10.006;2023-07-31T07:51:25;16.70;99.90
5792;DHT22;2922;53.482;10.006;2023-07-31T07:53:50;16.80;99.90
5792;DHT22;2922;53.482;10.006;2023-07-31T07:56:16;16.80;99.90
5792;DHT22;2922;53.482;10.006;2023-07-31T07:58:41;16.90;99.90
5792;DHT22;2922;53.482;10.006;2023-07-31T08:01:07;17.00;99.90
5792;DHT22;2922;53.482;10.006;2023-07-31T08:03:33;17.00;99.90
5792;DHT22;2922;53.482;10.006;2023-07-31T08:05:59;17.10;99.90
5792;DHT22;2922;53.482;10.006;2023-07-31T08:08:25;17.10;99.90
5792;DHT22;2922;53.482;10.006;2023-07-31T08:10:50;17.20;99.90
5792;DHT22;2922;53.482;10.006;2023-07-31T08:13:16;17.20;99.90
5792;DHT22;2922;53.482;10.006;2023-07-31T08:15:42;17.20;99.90
5792;DHT22;2922;53.482;10.006;2023-07-31T08:18:08;17.20;99.90
5792;DHT22;2922;53.482;10.006;2023-07-31T08:20:34;17.20;99.90
5792;DHT22;2922;53.482;10.006;2023-07-31T08:22:59;17.30;99.90
5792;DHT22;2922;53.482;10.006;2023-07-31T08:25:25;17.30;99.90
5792;DHT22;2922;53.482;10.006;2023-07-31T08:27:50;17.30;99.90
5792;DHT22;2922;53.482;10.006;2023-07-31T08:30:18;17.30;99.90
5792;DHT22;2922;53.482;10.006;2023-07-31T08:32:44;17.30;99.90
5792;DHT22;2922;53.482;10.006;2023-07-31T08:35:10;17.40;99.90
5792;DHT22;2922;53.482;10.006;2023-07-31T08:37:35;17.40;99.90
5792;DHT22;2922;53.482;10.006;2023-07-31T08:40:01;17.40;99.90
5792;DHT22;2922;53.482;10.006;2023-07-31T08:42:27;17.40;99.90
5792;DHT22;2922;53.482;10.006;2023-07-31T08:44:53;17.40;99.90
5792;DHT22;2922;53.482;10.006;2023-07-31T08:47:20;17.50;99.90
5792;DHT22;2922;53.482;10.006;2023-07-31T08:49:47;17.50;99.90
5792;DHT22;2922;53.482;10.006;2023-07-31T08:52:13;17.40;99.90
5792;DHT22;2922;53.482;10.006;2023-07-31T08:54:40;17.50;99.90
5792;DHT22;2922;53.482;10.006;2023-07-31T08:57:06;17.60;99.90
5792;DHT22;2922;53.482;10.006;2023-07-31T08:59:34;17.70;99.90
5792;DHT22;2922;53.482;10.006;2023-07-31T09:02:06;17.60;99.90
5792;DHT22;2922;53.482;10.006;2023-07-31T09:04:33;17.70;99.90
5792;DHT22;2922;53.482;10.006;2023-07-31T09:07:01;17.70;99.90
5792;DHT22;2922;53.482;10.006;2023-07-31T09:09:29;17.60;99.90
5792;DHT22;2922;53.482;10.006;2023-07-31T09:11:55;17.70;99.90
5792;DHT22;2922;53.482;10.006;2023-07-31T09:14:21;17.80;99.90
5792;DHT22;2922;53.482;10.006;2023-07-31T09:16:55;17.80;99.90
5792;DHT22;2922;53.482;10.006;2023-07-31T09:19:34;17.80;99.90
5792;DHT22;2922;53.482;10.006;2023-07-31T09:22:02;17.70;99.90
5792;DHT22;2922;53.482;10.006;2023-07-31T09:24:29;17.80;99.90
5792;DHT22;2922;53.482;10.006;2023-07-31T09:26:55;17.80;99.90
5792;DHT22;2922;53.482;10.006;2023-07-31T09:29:22;17.80;99.90
5792;DHT22;2922;53.482;10.006;2023-07-31T09:31:47;17.80;99.90
5792;DHT22;2922;53.482;10.006;2023-07-31T09:34:13;17.90;99.90
5792;DHT22;2922;53.482;10.006;2023-07-31T09:36:50;17.90;99.90
5792;DHT22;2922;53.482;10.006;2023-07-31T09:39:16;17.90;99.90
5792;DHT22;2922;53.482;10.006;2023-07-31T09:41:44;17.90;99.90
5792;DHT22;2922;53.482;10.006;2023-07-31T09:44:10;17.90;99.90
5792;DHT22;2922;53.482;10.006;2023-07-31T09:46:37;17.90;99.90
5792;DHT22;2922;53.482;10.006;2023-07-31T09:49:09;17.90;99.90
5792;DHT22;2922;53.482;10.006;2023-07-31T09:51:36;17.80;99.90
5792;DHT22;2922;53.482;10.006;2023-07-31T09:54:12;17.80;99.90
5792;DHT22;2922;53.482;10.006;2023-07-31T09:56:48;17.80;99.90
5792;DHT22;2922;53.482;10.006;2023-07-31T09:59:18;17.70;99.90
5792;DHT22;2922;53.482;10.006;2023-07-31T10:01:45;17.60;99.90
5792;DHT22;2922;53.482;10.006;2023-07-31T10:04:12;17.60;99.90
5792;DHT22;2922;53.482;10.006;2023-07-31T10:06:39;17.50;99.90
5792;DHT22;2922;53.482;10.006;2023-07-31T10:09:07;17.50;99.90
5792;DHT22;2922;53.482;10.006;2023-07-31T10:11:41;17.50;99.90
5792;DHT22;2922;53.482;10.006;2023-07-31T10:14:09;17.50;99.90
5792;DHT22;2922;53.482;10.006;2023-07-31T10:16:38;17.50;99.90
5792;DHT22;2922;53.482;10.006;2023-07-31T10:19:05;17.50;99.90
5792;DHT22;2922;53.482;10.006;2023-07-31T10:21:31;17.50;99.90
5792;DHT22;2922;53.482;10.006;2023-07-31T10:24:02;17.50;99.90
5792;DHT22;2922;53.482;10.006;2023-07-31T10:26:29;17.40;99.90
5792;DHT22;2922;53.482;10.006;2023-07-31T10:28:56;17.40;99.90
5792;DHT22;2922;53.482;10.006;2023-07-31T10:31:23;17.40;99.90
5792;DHT22;2922;53.482;10.006;2023-07-31T10:33:49;17.40;99.90
5792;DHT22;2922;53.482;10.006;2023-07-31T10:36:19;17.50;99.90
5792;DHT22;2922;53.482;10.006;2023-07-31T10:38:45;17.50;99.90
5792;DHT22;2922;53.482;10.006;2023-07-31T10:41:11;17.50;99.90
5792;DHT22;2922;53.482;10.006;2023-07-31T10:43:37;17.60;99.90
5792;DHT22;2922;53.482;10.006;2023-07-31T10:46:15;17.60;99.90
5792;DHT22;2922;53.482;10.006;2023-07-31T10:48:41;17.70;99.90
5792;DHT22;2922;53.482;10.006;2023-07-31T10:51:09;17.80;99.90
5792;DHT22;2922;53.482;10.006;2023-07-31T10:53:36;17.80;99.90
5792;DHT22;2922;53.482;10.006;2023-07-31T10:56:04;17.90;99.90
5792;DHT22;2922;53.482;10.006;2023-07-31T10:58:30;18.00;99.90
5792;DHT22;2922;53.482;10.006;2023-07-31T11:01:02;18.10;99.90
5792;DHT22;2922;53.482;10.006;2023-07-31T11:03:49;18.30;99.90
5792;DHT22;2922;53.482;10.006;2023-07-31T11:06:17;18.30;99.90
5792;DHT22;2922;53.482;10.006;2023-07-31T11:08:45;18.40;99.90
5792;DHT22;2922;53.482;10.006;2023-07-31T11:11:13;18.50;99.90
5792;DHT22;2922;53.482;10.006;2023-07-31T11:13:46;18.50;99.90
5792;DHT22;2922;53.482;10.006;2023-07-31T11:16:14;18.50;99.90
5792;DHT22;2922;53.482;10.006;2023-07-31T11:18:42;18.40;99.90
5792;DHT22;2922;53.482;10.006;2023-07-31T11:21:19;18.40;99.90
5792;DHT22;2922;53.482;10.006;2023-07-31T11:23:53;18.40;99.90
5792;DHT22;2922;53.482;10.006;2023-07-31T11:26:19;18.40;99.90
5792;DHT22;2922;53.482;10.006;2023-07-31T11:28:49;18.40;99.90
5792;DHT22;2922;53.482;10.006;2023-07-31T11:31:15;18.40;99.90
5792;DHT22;2922;53.482;10.006;2023-07-31T11:33:40;18.40;99.90
5792;DHT22;2922;53.482;10.006;2023-07-31T11:36:09;18.30;99.90
5792;DHT22;2922;53.482;10.006;2023-07-31T11:38:39;18.30;99.90
5792;DHT22;2922;53.482;10.006;2023-07-31T11:41:05;18.40;99.90
5792;DHT22;2922;53.482;10.006;2023-07-31T11:43:33;18.40;99.90
5792;DHT22;2922;53.482;10.006;2023-07-31T11:46:02;18.40;99.90
5792;DHT22;2922;53.482;10.006;2023-07-31T11:48:30;18.40;99.90
5792;DHT22;2922;53.482;10.006;2023-07-31T11:51:00;18.40;99.90
5792;DHT22;2922;53.482;10.006;2023-07-31T11:56:13;18.40;99.90
5792;DHT22;2922;53.482;10.006;2023-07-31T11:58:39;18.40;99.90
5792;DHT22;2922;53.482;10.006;2023-07-31T12:01:06;18.40;99.90
5792;DHT22;2922;53.482;10.006;2023-07-31T12:03:33;18.50;99.90
5792;DHT22;2922;53.482;10.006;2023-07-31T12:05:59;18.50;99.90
5792;DHT22;2922;53.482;10.006;2023-07-31T12:08:25;18.40;99.90
5792;DHT22;2922;53.482;10.006;2023-07-31T12:10:52;18.40;99.90
5792;DHT22;2922;53.482;10.006;2023-07-31T12:13:25;18.30;99.90
5792;DHT22;2922;53.482;10.006;2023-07-31T12:15:56;18.30;99.90
5792;DHT22;2922;53.482;10.006;2023-07-31T12:18:23;18.30;99.90
5792;DHT22;2922;53.482;10.006;2023-07-31T12:20:56;18.40;99.90
5792;DHT22;2922;53.482;10.006;2023-07-31T12:23:27;18.40;99.90
5792;DHT22;2922;53.482;10.006;2023-07-31T12:28:28;18.50;99.90
5792;DHT22;2922;53.482;10.006;2023-07-31T12:30:58;18.50;99.90
5792;DHT22;2922;53.482;10.006;2023-07-31T12:33:33;18.40;99.90
5792;DHT22;2922;53.482;10.006;2023-07-31T12:36:02;18.40;99.90
5792;DHT22;2922;53.482;10.006;2023-07-31T12:38:28;18.50;99.90
5792;DHT22;2922;53.482;10.006;2023-07-31T12:40:53;18.50;99.90
5792;DHT22;2922;53.482;10.006;2023-07-31T12:45:53;18.60;99.90
5792;DHT22;2922;53.482;10.006;2023-07-31T12:48:19;18.60;99.90
5792;DHT22;2922;53.482;10.006;2023-07-31T12:50:44;18.60;99.90
5792;DHT22;2922;53.482;10.006;2023-07-31T12:53:10;18.50;99.90
5792;DHT22;2922;53.482;10.006;2023-07-31T12:55:36;18.60;99.90
5792;DHT22;2922;53.482;10.006;2023-07-31T12:58:02;18.70;99.90
5792;DHT22;2922;53.482;10.006;2023-07-31T13:00:28;18.70;99.90
5792;DHT22;2922;53.482;10.006;2023-07-31T13:02:54;18.70;99.90
5792;DHT22;2922;53.482;10.006;2023-07-31T13:05:20;18.70;99.90
5792;DHT22;2922;53.482;10.006;2023-07-31T13:07:47;18.70;99.90
5792;DHT22;2922;53.482;10.006;2023-07-31T13:10:13;18.80;99.90
5792;DHT22;2922;53.482;10.006;2023-07-31T13:12:38;18.80;99.90
5792;DHT22;2922;53.482;10.006;2023-07-31T13:15:05;18.90;99.90
5792;DHT22;2922;53.482;10.006;2023-07-31T13:17:31;18.90;99.90
5792;DHT22;2922;53.482;10.006;2023-07-31T13:19:57;18.80;99.90
5792;DHT22;2922;53.482;10.006;2023-07-31T13:22:23;18.80;99.90
5792;DHT22;2922;53.482;10.006;2023-07-31T13:24:49;18.70;99.90
5792;DHT22;2922;53.482;10.006;2023-07-31T13:27:14;18.70;99.90
5792;DHT22;2922;53.482;10.006;2023-07-31T13:29:45;18.70;99.90
5792;DHT22;2922;53.482;10.006;2023-07-31T13:32:10;18.70;99.90
5792;DHT22;2922;53.482;10.006;2023-07-31T13:34:36;18.70;99.90
5792;DHT22;2922;53.482;10.006;2023-07-31T13:37:02;18.70;99.90
5792;DHT22;2922;53.482;10.006;2023-07-31T13:39:28;18.80;99.90
5792;DHT22;2922;53.482;10.006;2023-07-31T13:41:53;18.80;99.90
5792;DHT22;2922;53.482;10.006;2023-07-31T13:44:19;18.90;99.90
5792;DHT22;2922;53.482;10.006;2023-07-31T13:46:44;19.00;99.90
5792;DHT22;2922;53.482;10.006;2023-07-31T13:49:10;19.20;99.90
5792;DHT22;2922;53.482;10.006;2023-07-31T13:51:35;19.10;99.90
5792;DHT22;2922;53.482;10.006;2023-07-31T13:54:01;19.10;99.90
5792;DHT22;2922;53.482;10.006;2023-07-31T13:56:27;19.20;99.90
5792;DHT22;2922;53.482;10.006;2023-07-31T13:58:52;19.30;99.90
5792;DHT22;2922;53.482;10.006;2023-07-31T14:01:18;19.30;99.90
5792;DHT22;2922;53.482;10.006;2023-07-31T14:03:43;19.40;99.90
5792;DHT22;2922;53.482;10.006;2023-07-31T14:06:09;19.50;99.90
5792;DHT22;2922;53.482;10.006;2023-07-31T14:08:35;19.40;99.90
5792;DHT22;2922;53.482;10.006;2023-07-31T14:11:00;19.50;99.90
5792;DHT22;2922;53.482;10.006;2023-07-31T14:13:26;19.20;99.90
5792;DHT22;2922;53.482;10.006;2023-07-31T14:15:51;19.20;99.90
5792;DHT22;2922;53.482;10.006;2023-07-31T14:18:18;19.10;99.90
5792;DHT22;2922;53.482;10.006;2023-07-31T14:20:44;19.00;99.90
5792;DHT22;2922;53.482;10.006;2023-07-31T14:23:09;18.80;99.90
5792;DHT22;2922;53.482;10.006;2023-07-31T14:25:35;18.80;99.90
5792;DHT22;2922;53.482;10.006;2023-07-31T14:28:00;18.90;99.90
5792;DHT22;2922;53.482;10.006;2023-07-31T14:30:26;18.90;99.90
5792;DHT22;2922;53.482;10.006;2023-07-31T14:32:51;18.80;99.90
5792;DHT22;2922;53.482;10.006;2023-07-31T14:35:38;18.80;99.90
5792;DHT22;2922;53.482;10.006;2023-07-31T14:38:03;18.80;99.90
5792;DHT22;2922;53.482;10.006;2023-07-31T14:40:29;18.80;99.90
5792;DHT22;2922;53.482;10.006;2023-07-31T14:42:55;18.90;99.90
5792;DHT22;2922;53.482;10.006;2023-07-31T14:45:20;19.00;99.90
5792;DHT22;2922;53.482;10.006;2023-07-31T14:47:46;18.90;99.90
5792;DHT22;2922;53.482;10.006;2023-07-31T14:50:12;19.00;99.90
5792;DHT22;2922;53.482;10.006;2023-07-31T14:52:37;18.90;99.90
5792;DHT22;2922;53.482;10.006;2023-07-31T14:55:03;19.00;99.90
5792;DHT22;2922;53.482;10.006;2023-07-31T14:57:29;18.90;99.90
5792;DHT22;2922;53.482;10.006;2023-07-31T14:59:54;19.00;99.90
5792;DHT22;2922;53.482;10.006;2023-07-31T15:02:20;19.10;99.90
5792;DHT22;2922;53.482;10.006;2023-07-31T15:04:46;19.00;99.90
5792;DHT22;2922;53.482;10.006;2023-07-31T15:07:12;19.00;99.90
5792;DHT22;2922;53.482;10.006;2023-07-31T15:09:39;19.00;99.90
5792;DHT22;2922;53.482;10.006;2023-07-31T15:12:05;19.00;99.90
5792;DHT22;2922;53.482;10.006;2023-07-31T15:14:30;19.00;99.90
5792;DHT22;2922;53.482;10.006;2023-07-31T15:16:56;19.00;99.90
5792;DHT22;2922;53.482;10.006;2023-07-31T15:19:22;18.90;99.90
5792;DHT22;2922;53.482;10.006;2023-07-31T15:21:50;18.90;99.90
5792;DHT22;2922;53.482;10.006;2023-07-31T15:24:16;18.90;99.90
5792;DHT22;2922;53.482;10.006;2023-07-31T15:26:41;18.80;99.90
5792;DHT22;2922;53.482;10.006;2023-07-31T15:29:08;18.80;99.90
5792;DHT22;2922;53.482;10.006;2023-07-31T15:31:35;18.80;99.90
5792;DHT22;2922;53.482;10.006;2023-07-31T15:34:01;18.80;99.90
5792;DHT22;2922;53.482;10.006;2023-07-31T15:36:26;18.80;99.90
5792;DHT22;2922;53.482;10.006;2023-07-31T15:38:52;18.70;99.90
5792;DHT22;2922;53.482;10.006;2023-07-31T15:41:18;18.70;99.90
5792;DHT22;2922;53.482;10.006;2023-07-31T15:43:44;18.70;99.90
5792;DHT22;2922;53.482;10.006;2023-07-31T15:46:10;18.60;99.90
5792;DHT22;2922;53.482;10.006;2023-07-31T15:48:35;18.60;99.90
5792;DHT22;2922;53.482;10.006;2023-07-31T15:51:01;18.50;99.90
5792;DHT22;2922;53.482;10.006;2023-07-31T15:53:28;18.60;99.90
5792;DHT22;2922;53.482;10.006;2023-07-31T15:55:54;18.50;99.90